Time;durP1;ratioP1;P1;durP2;ratioP2;P2;SDS_P1;SDS_P2;PMS_P1;PMS_P2;Temp;Humidity;BMP_temperature;BMP_pressure;BME280_temperature;BME280_humidity;BME280_pressure;Samples;Min_cycle;Max_cycle;Signal;HPM_P1;HPM_P2
2023/08/21 00:01:12;;;;;;;3.85;1.13;;;;;;;28.05;45.77;102404.50;5076320;28;20043;-72
2023/08/21 00:03:37;;;;;;;4.90;1.27;;;;;;;28.32;44.89;102404.69;5087954;28;20023;-72
2023/08/21 00:06:02;;;;;;;3.92;1.27;;;;;;;28.01;45.79;102406.50;5090149;28;20170;-71
2023/08/21 00:08:28;;;;;;;2.20;1.13;;;;;;;28.06;46.06;102392.81;5083375;28;20021;-72
2023/08/21 00:10:53;;;;;;;1.20;1.13;;;;;;;28.08;45.67;102401.63;5068909;28;20138;-71
2023/08/21 00:13:19;;;;;;;1.42;1.10;;;;;;;28.21;45.52;102408.00;5068310;28;20028;-72
2023/08/21 00:15:44;;;;;;;1.13;1.00;;;;;;;28.30;45.40;102397.66;5070584;28;20496;-72
2023/08/21 00:18:10;;;;;;;2.03;1.40;;;;;;;28.27;46.06;102398.72;5073166;28;20029;-72
2023/08/21 00:20:35;;;;;;;5.03;1.30;;;;;;;28.17;46.18;102402.94;5084284;28;20050;-71
2023/08/21 00:23:01;;;;;;;3.92;1.02;;;;;;;28.16;46.15;102402.03;5087970;28;20032;-71
2023/08/21 00:25:26;;;;;;;6.20;1.73;;;;;;;28.34;45.49;102407.25;5069213;28;20078;-71
2023/08/21 00:27:51;;;;;;;2.65;1.58;;;;;;;28.02;46.22;102410.06;5068307;28;20028;-71
2023/08/21 00:30:17;;;;;;;5.82;1.63;;;;;;;27.92;46.17;102399.84;5069573;28;20143;-71
2023/08/21 00:32:42;;;;;;;3.05;1.45;;;;;;;27.71;46.66;102403.78;5082556;28;20089;-70
2023/08/21 00:35:08;;;;;;;1.70;1.40;;;;;;;27.78;46.37;102402.50;5089948;28;20028;-71
2023/08/21 00:37:33;;;;;;;5.22;1.45;;;;;;;27.73;46.68;102407.25;5089378;28;20475;-71
2023/08/21 00:39:59;;;;;;;2.80;1.40;;;;;;;27.82;46.16;102406.72;5079152;28;20027;-72
2023/08/21 00:42:24;;;;;;;3.50;1.65;;;;;;;27.66;46.59;102390.63;5087198;28;20024;-72
2023/08/21 00:44:49;;;;;;;6.40;1.60;;;;;;;27.77;46.26;102393.53;5088145;28;20039;-72
2023/08/21 00:47:15;;;;;;;6.35;2.17;;;;;;;27.78;46.17;102394.44;5087829;28;20391;-72
2023/08/21 00:49:41;;;;;;;3.28;1.60;;;;;;;27.62;46.19;102389.06;5080399;28;20503;-71
2023/08/21 00:52:10;;;;;;;1.90;1.40;;;;;;;27.56;46.00;102387.63;5069018;28;20032;-72
2023/08/21 00:54:36;;;;;;;3.55;1.90;;;;;;;27.96;45.66;102396.97;5075001;28;20146;-73
2023/08/21 00:57:02;;;;;;;2.95;1.50;;;;;;;27.90;45.98;102393.72;5089025;28;20439;-72
2023/08/21 00:59:29;;;;;;;2.15;1.45;;;;;;;27.83;45.96;102392.31;5081434;28;20052;-72
2023/08/21 01:01:54;;;;;;;7.13;1.50;;;;;;;28.08;44.82;102391.78;5086961;28;20307;-71
2023/08/21 01:04:21;;;;;;;3.95;1.58;;;;;;;27.85;46.23;102393.09;5088207;28;20523;-72
2023/08/21 01:06:48;;;;;;;2.03;1.40;;;;;;;27.55;46.85;102388.56;5088961;28;20081;-72
2023/08/21 01:09:31;;;;;;;3.90;1.40;;;;;;;27.49;46.89;102388.94;5078260;28;20032;-72
2023/08/21 01:12:25;;;;;;;3.33;1.38;;;;;;;27.54;46.88;102386.81;5084079;28;20092;-72
2023/08/21 01:14:53;;;;;;;1.83;1.20;;;;;;;27.41;46.53;102394.72;5088103;28;20020;-72
2023/08/21 01:17:19;;;;;;;3.42;1.17;;;;;;;27.45;46.71;102398.13;5087712;28;20031;-72
2023/08/21 01:19:48;;;;;;;2.83;1.65;;;;;;;27.31;46.41;102390.78;5089769;28;20337;-72
2023/08/21 01:22:13;;;;;;;5.30;1.40;;;;;;;27.26;47.11;102399.13;5086695;28;20028;-73
2023/08/21 01:24:39;;;;;;;2.45;1.52;;;;;;;27.33;46.83;102393.41;5087864;28;20471;-72
2023/08/21 01:27:04;;;;;;;2.42;1.40;;;;;;;27.22;47.01;102394.88;5088867;28;20036;-68
2023/08/21 01:29:30;;;;;;;4.20;2.00;;;;;;;27.12;47.49;102396.34;5087274;28;20086;-68
2023/08/21 01:32:02;;;;;;;1.85;1.52;;;;;;;27.09;47.30;102401.88;5073893;28;20028;-68
2023/08/21 01:34:30;;;;;;;4.00;1.40;;;;;;;27.13;47.73;102398.06;5080154;28;20036;-67
2023/08/21 01:36:56;;;;;;;2.83;1.27;;;;;;;27.43;46.67;102402.69;5076048;28;20369;-67
2023/08/21 01:39:23;;;;;;;2.20;1.50;;;;;;;27.38;46.82;102402.09;5067672;28;20031;-68
2023/08/21 01:41:48;;;;;;;1.80;1.10;;;;;;;27.51;46.13;102404.94;5069084;28;20034;-68
2023/08/21 01:44:14;;;;;;;2.78;1.60;;;;;;;27.86;45.45;102402.03;5084680;28;20024;-67
2023/08/21 01:46:39;;;;;;;3.70;1.35;;;;;;;28.02;44.86;102404.72;5088121;28;20035;-67
2023/08/21 01:49:05;;;;;;;4.00;1.20;;;;;;;27.41;46.13;102412.66;5089185;28;20103;-68
2023/08/21 01:51:30;;;;;;;2.15;1.38;;;;;;;27.35;46.45;102407.59;5089925;28;20028;-67
2023/08/21 01:53:55;;;;;;;4.30;1.58;;;;;;;27.39;46.33;102409.19;5091309;28;20039;-67
2023/08/21 01:56:21;;;;;;;3.97;1.60;;;;;;;27.20;47.05;102401.28;5090185;28;20085;-68
2023/08/21 01:58:46;;;;;;;1.77;1.35;;;;;;;27.35;46.89;102407.59;5086503;28;20047;-67
2023/08/21 02:01:12;;;;;;;1.77;1.23;;;;;;;27.35;46.74;102403.09;5090494;28;20038;-67
2023/08/21 02:03:37;;;;;;;2.42;1.15;;;;;;;27.10;47.05;102398.25;5070978;28;20104;-67
2023/08/21 02:06:02;;;;;;;2.10;1.20;;;;;;;27.22;46.96;102402.91;5069935;28;20039;-68
2023/08/21 02:08:34;;;;;;;3.42;1.27;;;;;;;27.18;46.29;102397.81;5078665;28;20043;-68
2023/08/21 02:11:00;;;;;;;1.60;1.05;;;;;;;27.32;46.36;102399.72;5091163;28;20035;-68
2023/08/21 02:13:25;;;;;;;3.47;1.02;;;;;;;27.43;46.03;102403.53;5090286;28;20027;-67
2023/08/21 02:15:51;;;;;;;2.78;1.05;;;;;;;27.22;46.91;102397.56;5083855;28;20484;-68
2023/08/21 02:18:16;;;;;;;3.25;1.23;;;;;;;27.49;46.47;102401.47;5092173;28;20027;-68
2023/08/21 02:20:42;;;;;;;5.18;1.50;;;;;;;27.28;46.51;102406.22;5089888;28;20026;-68
2023/08/21 02:23:07;;;;;;;6.40;1.35;;;;;;;27.45;45.87;102400.81;5089660;28;20055;-67
2023/08/21 02:25:33;;;;;;;2.45;1.30;;;;;;;27.36;46.48;102398.63;5090721;28;20034;-68
2023/08/21 02:27:58;;;;;;;2.42;1.35;;;;;;;27.02;47.38;102395.13;5090281;28;20020;-68
2023/08/21 02:30:25;;;;;;;4.03;1.58;;;;;;;27.28;46.76;102395.50;5091139;28;20450;-67
2023/08/21 02:32:53;;;;;;;4.90;1.60;;;;;;;27.54;45.89;102405.63;5076971;28;20028;-68
2023/08/21 02:35:20;;;;;;;3.22;1.70;;;;;;;27.28;46.66;102395.50;5087559;28;20107;-68
2023/08/21 02:37:45;;;;;;;3.25;1.40;;;;;;;27.48;46.71;102402.41;5079818;28;20080;-67
2023/08/21 02:40:11;;;;;;;2.67;1.08;;;;;;;27.26;46.74;102399.13;5090939;28;20036;-67
2023/08/21 02:42:37;;;;;;;7.72;1.42;;;;;;;27.14;47.02;102394.44;5090154;28;20027;-68
2023/08/21 02:45:07;;;;;;;2.97;1.23;;;;;;;27.46;46.31;102397.13;5090872;28;20034;-67
2023/08/21 02:47:37;;;;;;;3.05;1.30;;;;;;;27.56;45.68;102392.09;5071365;28;20035;-67
2023/08/21 02:50:06;;;;;;;2.63;1.20;;;;;;;27.51;45.78;102389.69;5091650;28;20472;-68
2023/08/21 02:52:33;;;;;;;3.60;1.77;;;;;;;27.58;46.02;102398.25;5089094;28;20024;-68
2023/08/21 02:54:59;;;;;;;2.88;1.30;;;;;;;27.57;45.82;102391.16;5089122;28;20064;-68
2023/08/21 02:57:25;;;;;;;1.92;1.10;;;;;;;27.82;44.69;102398.66;5088065;28;20436;-67
2023/08/21 02:59:50;;;;;;;3.25;1.38;;;;;;;27.32;46.67;102397.03;5069497;28;20040;-67
2023/08/21 03:02:17;;;;;;;3.38;1.23;;;;;;;26.89;47.39;102395.78;5051325;28;20028;-68
2023/08/21 03:04:42;;;;;;;2.97;1.30;;;;;;;26.90;47.42;102386.81;5052945;28;20028;-67
2023/08/21 03:07:07;;;;;;;3.30;1.35;;;;;;;27.08;46.58;102386.75;5042309;28;20384;-67
2023/08/21 03:09:33;;;;;;;2.42;1.48;;;;;;;27.09;46.93;102391.13;5048095;28;20036;-68
2023/08/21 03:11:58;;;;;;;2.38;1.30;;;;;;;27.23;46.63;102393.94;5051265;28;20107;-68
2023/08/21 03:14:26;;;;;;;2.72;1.05;;;;;;;27.02;46.82;102392.44;5070925;28;20035;-67
2023/08/21 03:16:51;;;;;;;2.55;1.10;;;;;;;26.75;47.11;102393.03;5046953;28;20056;-67
2023/08/21 03:19:17;;;;;;;3.70;1.00;;;;;;;27.18;46.17;102387.94;5051384;28;20075;-68
2023/08/21 03:21:42;;;;;;;3.15;1.55;;;;;;;26.87;47.17;102392.34;5051446;28;20074;-67
2023/08/21 03:24:08;;;;;;;2.63;1.63;;;;;;;26.91;47.07;102387.66;5046909;28;20553;-67
2023/08/21 03:26:33;;;;;;;2.40;1.20;;;;;;;26.82;47.50;102383.69;5053168;28;20029;-67
2023/08/21 03:28:59;;;;;;;4.60;1.10;;;;;;;27.19;46.42;102376.25;5049520;28;20579;-67
2023/08/21 03:31:24;;;;;;;2.63;1.30;;;;;;;26.76;47.26;102389.38;5050593;28;20024;-67
2023/08/21 03:33:49;;;;;;;2.60;1.23;;;;;;;26.68;47.75;102380.84;5032306;28;20025;-67
2023/08/21 03:36:15;;;;;;;4.50;1.23;;;;;;;26.82;47.37;102389.03;5031574;28;20039;-67
2023/08/21 03:38:40;;;;;;;4.72;1.00;;;;;;;26.62;47.84;102389.22;5038942;28;20032;-67
2023/08/21 03:41:06;;;;;;;2.28;1.40;;;;;;;26.62;48.30;102375.81;5052515;28;20062;-67
2023/08/21 03:43:32;;;;;;;1.23;0.90;;;;;;;26.58;48.63;102385.81;5051280;28;20112;-68
2023/08/21 03:45:58;;;;;;;2.38;1.25;;;;;;;26.66;48.16;102388.13;5051433;28;20063;-68
2023/08/21 03:48:23;;;;;;;2.47;1.77;;;;;;;26.65;48.30;102387.22;5051079;28;20571;-68
2023/08/21 03:50:50;;;;;;;5.03;1.30;;;;;;;26.52;48.45;102397.75;5050174;28;20118;-68
2023/08/21 03:53:15;;;;;;;1.30;1.20;;;;;;;26.54;48.59;102394.97;5051832;28;20119;-69
2023/08/21 03:55:40;;;;;;;3.03;1.05;;;;;;;26.72;48.23;102387.78;5051634;28;20123;-68
2023/08/21 03:58:06;;;;;;;4.13;1.25;;;;;;;26.56;48.70;102393.97;5062044;28;20047;-69
2023/08/21 04:00:31;;;;;;;3.88;1.55;;;;;;;26.73;48.14;102392.22;5081034;28;20038;-68
2023/08/21 04:02:58;;;;;;;7.00;1.35;;;;;;;26.86;47.66;102393.28;5088681;28;20031;-68
2023/08/21 04:05:24;;;;;;;2.65;1.10;;;;;;;26.62;48.64;102386.53;5088732;28;20032;-68
2023/08/21 04:07:49;;;;;;;5.88;1.67;;;;;;;26.71;48.34;102386.09;5083607;28;20036;-68
2023/08/21 04:10:16;;;;;;;1.95;1.13;;;;;;;27.09;47.14;102391.13;5088807;28;20399;-68
2023/08/21 04:12:41;;;;;;;3.90;1.63;;;;;;;26.70;49.03;102385.19;5087162;28;20045;-68
2023/08/21 04:15:07;;;;;;;2.28;1.13;;;;;;;27.00;48.20;102391.66;5088779;28;20036;-69
2023/08/21 04:17:33;;;;;;;4.90;1.17;;;;;;;27.19;47.91;102391.47;5069605;28;20024;-69
2023/08/21 04:19:58;;;;;;;2.30;1.20;;;;;;;27.32;47.23;102386.31;5075486;28;20552;-69
2023/08/21 04:22:24;;;;;;;3.30;1.45;;;;;;;27.50;47.36;102389.78;5085421;28;20445;-68
2023/08/21 04:24:49;;;;;;;0.95;0.90;;;;;;;27.40;47.45;102394.81;5085310;28;20028;-69
2023/08/21 04:27:15;;;;;;;1.52;1.02;;;;;;;27.41;47.21;102386.69;5088749;28;20027;-69
2023/08/21 04:29:40;;;;;;;2.50;1.00;;;;;;;27.57;47.18;102392.03;5089490;28;20135;-68
2023/08/21 04:32:06;;;;;;;3.85;1.30;;;;;;;27.36;47.02;102402.16;5089068;28;20495;-69
2023/08/21 04:34:37;;;;;;;2.17;1.10;;;;;;;27.29;47.37;102386.50;5085288;28;20028;-69
2023/08/21 04:37:04;;;;;;;3.63;1.10;;;;;;;27.09;47.44;102397.38;5088287;28;20028;-69
2023/08/21 04:39:29;;;;;;;4.32;1.05;;;;;;;27.06;47.58;102396.69;5089396;28;20489;-69
2023/08/21 04:41:55;;;;;;;2.85;1.05;;;;;;;26.79;48.29;102401.75;5086605;28;20453;-69
2023/08/21 04:44:20;;;;;;;4.30;1.08;;;;;;;26.92;47.97;102400.97;5076639;28;20032;-70
2023/08/21 04:46:48;;;;;;;4.07;1.00;;;;;;;26.72;48.09;102406.56;5066619;28;20377;-69
2023/08/21 04:49:14;;;;;;;1.63;1.23;;;;;;;26.92;47.69;102410.84;5068268;28;20515;-68
2023/08/21 04:51:39;;;;;;;3.72;1.20;;;;;;;26.79;48.60;102410.69;5080916;28;20023;-68
2023/08/21 04:54:04;;;;;;;2.88;1.15;;;;;;;26.75;48.40;102417.16;5087952;28;20052;-69
2023/08/21 04:56:30;;;;;;;2.08;1.40;;;;;;;26.50;49.58;102413.06;5089796;28;20616;-69
2023/08/21 04:58:55;;;;;;;4.13;1.13;;;;;;;26.90;48.16;102410.94;5062802;28;20053;-69
2023/08/21 05:01:21;;;;;;;3.58;1.50;;;;;;;26.99;48.12;102411.41;5058465;28;20032;-69
2023/08/21 05:03:46;;;;;;;2.22;1.55;;;;;;;27.05;47.63;102406.56;5050825;28;20024;-69
2023/08/21 05:06:12;;;;;;;4.68;1.33;;;;;;;27.02;47.80;102416.59;5051341;28;20031;-69
2023/08/21 05:08:37;;;;;;;1.98;1.30;;;;;;;26.90;48.08;102413.63;5048251;28;20037;-69
2023/08/21 05:11:02;;;;;;;2.42;1.75;;;;;;;26.75;48.54;102409.09;5067767;28;20051;-69
2023/08/21 05:13:28;;;;;;;2.13;1.23;;;;;;;26.70;48.33;102416.53;5046856;28;20025;-69
2023/08/21 05:15:57;;;;;;;6.32;1.30;;;;;;;26.84;48.15;102416.63;5050113;28;20500;-69
2023/08/21 05:18:24;;;;;;;5.00;1.60;;;;;;;26.84;48.17;102419.31;5050213;28;20115;-70
2023/08/21 05:20:50;;;;;;;2.47;1.48;;;;;;;27.03;47.96;102412.97;5051105;28;20028;-69
2023/08/21 05:23:16;;;;;;;4.30;1.38;;;;;;;27.21;47.19;102411.91;5050649;28;20036;-70
2023/08/21 05:25:44;;;;;;;4.18;1.50;;;;;;;26.74;48.27;102423.47;5070244;28;20370;-70
2023/08/21 05:28:09;;;;;;;3.50;2.00;;;;;;;26.71;48.75;102423.63;5050869;28;20040;-69
2023/08/21 05:30:38;;;;;;;1.70;1.40;;;;;;;26.67;48.85;102419.34;5064961;28;20032;-69
2023/08/21 05:33:04;;;;;;;2.20;1.00;;;;;;;27.09;47.95;102423.34;5035552;28;20047;-69
2023/08/21 05:35:36;;;;;;;3.53;1.40;;;;;;;26.80;49.00;102428.47;5053682;28;20115;-69
2023/08/21 05:38:02;;;;;;;2.28;1.70;;;;;;;26.89;48.74;102417.25;5064727;28;20103;-69
2023/08/21 05:40:28;;;;;;;7.75;2.03;;;;;;;26.87;48.74;102419.16;5059017;28;20024;-69
2023/08/21 05:42:53;;;;;;;4.28;1.77;;;;;;;27.04;48.38;102420.91;5043688;28;20328;-69
2023/08/21 05:45:19;;;;;;;4.70;1.40;;;;;;;27.22;47.78;102424.41;5047329;28;20169;-69
2023/08/21 05:47:44;;;;;;;4.63;1.40;;;;;;;27.20;47.89;102415.56;5071707;28;20024;-69
2023/08/21 05:50:10;;;;;;;2.67;1.25;;;;;;;27.29;47.88;102418.69;5052094;28;20287;-69
2023/08/21 05:52:35;;;;;;;2.22;1.70;;;;;;;27.34;47.57;102419.28;5036315;28;20040;-69
2023/08/21 05:55:01;;;;;;;2.15;1.30;;;;;;;27.19;48.23;102419.22;5043933;28;20507;-68
2023/08/21 05:57:26;;;;;;;4.95;1.23;;;;;;;27.49;47.27;102421.16;5038193;28;20029;-69
2023/08/21 05:59:52;;;;;;;2.67;1.42;;;;;;;27.45;47.87;102414.22;5039195;28;20027;-69
2023/08/21 06:02:17;;;;;;;5.70;1.95;;;;;;;27.40;48.03;102421.66;5054794;28;20029;-69
2023/08/21 06:04:43;;;;;;;3.08;1.75;;;;;;;27.74;47.37;102425.13;5052002;28;20029;-69
2023/08/21 06:07:09;;;;;;;2.30;1.70;;;;;;;27.58;47.90;102425.97;5058067;28;20107;-69
2023/08/21 06:09:37;;;;;;;3.08;1.88;;;;;;;27.74;47.88;102425.13;5042899;28;20508;-69
2023/08/21 06:12:03;;;;;;;2.80;1.30;;;;;;;27.85;47.99;102425.34;5048693;28;20051;-69
2023/08/21 06:14:29;;;;;;;4.43;1.30;;;;;;;27.79;47.84;102423.00;5066374;28;20032;-69
2023/08/21 06:17:01;;;;;;;4.80;1.45;;;;;;;27.81;47.37;102426.47;5051526;28;20077;-69
2023/08/21 06:19:26;;;;;;;7.05;1.73;;;;;;;27.90;47.53;102431.31;5068753;28;20442;-69
2023/08/21 06:21:51;;;;;;;5.88;1.70;;;;;;;27.81;47.33;102434.53;5040896;28;20043;-68
2023/08/21 06:24:17;;;;;;;7.70;1.73;;;;;;;27.61;47.88;102432.13;5042843;28;20032;-69
2023/08/21 06:26:42;;;;;;;3.60;1.52;;;;;;;27.46;48.31;102434.72;5032934;28;20029;-69
2023/08/21 06:29:08;;;;;;;3.00;1.55;;;;;;;27.56;48.39;102438.63;5034050;28;20544;-69
2023/08/21 06:31:33;;;;;;;2.80;1.70;;;;;;;27.39;48.86;102436.03;5033431;28;20377;-69
2023/08/21 06:33:59;;;;;;;3.00;1.88;;;;;;;27.61;48.17;102435.69;5061712;28;20082;-69
2023/08/21 06:36:24;;;;;;;2.42;1.60;;;;;;;27.95;47.27;102441.78;5044721;28;20111;-69
2023/08/21 06:38:50;;;;;;;5.00;2.05;;;;;;;27.82;47.85;102433.59;5033013;28;20028;-69
2023/08/21 06:41:15;;;;;;;6.97;1.65;;;;;;;28.05;47.51;102436.75;5033947;28;20033;-69
2023/08/21 06:43:41;;;;;;;3.13;1.52;;;;;;;27.85;47.29;102430.72;5047946;28;20050;-68
2023/08/21 06:46:07;;;;;;;8.82;2.20;;;;;;;28.00;47.53;102437.03;5068681;28;20085;-69
2023/08/21 06:48:32;;;;;;;3.78;1.58;;;;;;;28.01;47.43;102437.91;5053500;28;20032;-68
2023/08/21 06:50:57;;;;;;;4.25;1.60;;;;;;;28.24;46.80;102440.06;5039150;28;20082;-68
2023/08/21 06:53:23;;;;;;;3.72;2.08;;;;;;;28.29;47.19;102436.25;5032567;28;20397;-69
2023/08/21 06:55:48;;;;;;;7.97;1.88;;;;;;;28.61;46.22;102435.16;5040929;28;20093;-69
2023/08/21 06:58:14;;;;;;;4.80;1.83;;;;;;;28.66;46.08;102428.66;5059198;28;20040;-68
2023/08/21 07:00:39;;;;;;;3.88;1.75;;;;;;;28.64;46.18;102436.81;5080035;28;20039;-69
2023/08/21 07:03:07;;;;;;;4.70;1.42;;;;;;;28.68;46.32;102442.88;5076721;28;20481;-68
2023/08/21 07:05:35;;;;;;;7.97;1.92;;;;;;;28.42;46.52;102443.47;5070010;28;20388;-68
2023/08/21 07:08:00;;;;;;;3.65;1.63;;;;;;;28.34;46.92;102458.34;5068948;28;20035;-68
2023/08/21 07:10:26;;;;;;;6.60;2.45;;;;;;;28.17;47.03;102444.09;5080829;28;20032;-68
2023/08/21 07:12:53;;;;;;;5.47;2.15;;;;;;;28.25;46.79;102446.34;5082643;28;20069;-68
2023/08/21 07:15:18;;;;;;;3.58;1.70;;;;;;;28.67;46.14;102446.53;5077653;28;20063;-69
2023/08/21 07:17:44;;;;;;;6.03;3.10;;;;;;;29.01;45.70;102449.81;5069984;28;20052;-68
2023/08/21 07:20:10;;;;;;;3.20;2.45;;;;;;;29.35;45.11;102445.00;5088244;28;20039;-68
2023/08/21 07:22:36;;;;;;;8.23;2.40;;;;;;;29.79;44.14;102458.22;5085850;28;20101;-68
2023/08/21 07:25:04;;;;;;;7.93;2.78;;;;;;;32.12;40.73;102448.06;5084349;28;20024;-69
2023/08/21 07:27:30;;;;;;;8.32;2.28;;;;;;;33.00;38.39;102453.91;5080927;28;20024;-69
2023/08/21 07:29:56;;;;;;;4.93;2.03;;;;;;;33.76;37.11;102456.72;5068364;28;20442;-69
2023/08/21 07:32:21;;;;;;;8.10;2.28;;;;;;;34.73;34.61;102459.28;5083669;28;20106;-69
2023/08/21 07:34:47;;;;;;;5.38;2.22;;;;;;;35.83;33.10;102454.88;5084491;28;20036;-69
2023/08/21 07:37:12;;;;;;;7.43;1.98;;;;;;;36.45;33.33;102454.53;5079051;28;20097;-69
2023/08/21 07:39:37;;;;;;;5.63;1.70;;;;;;;37.44;30.34;102461.28;5083922;28;20082;-69
2023/08/21 07:42:03;;;;;;;3.17;1.63;;;;;;;36.93;31.57;102463.56;5092208;28;20028;-69
2023/08/21 07:44:29;;;;;;;10.73;1.95;;;;;;;36.53;30.61;102465.53;5071707;28;20028;-68
2023/08/21 07:46:54;;;;;;;4.97;1.63;;;;;;;37.43;30.56;102465.03;5077275;28;20366;-69
2023/08/21 07:49:19;;;;;;;5.00;1.45;;;;;;;37.98;29.75;102464.88;5076365;28;20025;-69
2023/08/21 07:51:45;;;;;;;5.35;1.52;;;;;;;37.21;29.75;102466.25;5068008;28;20511;-69
2023/08/21 07:54:11;;;;;;;4.00;1.42;;;;;;;36.77;30.59;102464.19;5088438;28;20028;-69
2023/08/21 07:56:37;;;;;;;6.50;1.77;;;;;;;36.56;30.98;102468.00;5084822;28;20032;-69
2023/08/21 07:59:03;;;;;;;5.55;1.92;;;;;;;37.51;29.50;102465.13;5068749;28;20040;-69
2023/08/21 08:01:29;;;;;;;3.75;1.60;;;;;;;38.57;28.63;102474.34;5088140;28;20096;-70
2023/08/21 08:03:54;;;;;;;6.10;1.88;;;;;;;38.63;29.00;102485.47;5080999;28;20340;-67
2023/08/21 08:06:20;;;;;;;6.43;1.58;;;;;;;38.75;28.08;102487.97;5072839;28;20024;-68
2023/08/21 08:08:45;;;;;;;6.03;1.98;;;;;;;34.90;32.58;102489.53;5087794;28;20039;-68
2023/08/21 08:11:11;;;;;;;6.95;1.80;;;;;;;36.43;31.40;102478.34;5088072;28;20028;-68
2023/08/21 08:13:36;;;;;;;2.85;1.40;;;;;;;37.69;29.97;102471.41;5083046;28;20828;-67
2023/08/21 08:16:02;;;;;;;2.50;1.35;;;;;;;39.00;28.93;102465.19;5069683;28;20039;-68
2023/08/21 08:18:27;;;;;;;3.30;1.38;;;;;;;38.88;27.90;102469.22;5075650;28;20361;-69
2023/08/21 08:20:53;;;;;;;5.32;1.95;;;;;;;38.26;28.75;102459.31;5086620;28;20035;-68
2023/08/21 08:23:19;;;;;;;2.75;1.50;;;;;;;38.79;28.96;102464.78;5080284;28;20824;-68
2023/08/21 08:25:45;;;;;;;5.40;1.50;;;;;;;38.26;28.68;102467.50;5086193;28;20024;-68
2023/08/21 08:28:10;;;;;;;3.50;1.17;;;;;;;38.91;29.10;102471.66;5085137;28;20113;-68
2023/08/21 08:30:36;;;;;;;3.67;1.35;;;;;;;38.02;28.93;102476.34;5085419;28;20024;-68
2023/08/21 08:33:02;;;;;;;5.20;1.08;;;;;;;37.72;29.23;102481.16;5086631;28;20106;-68
2023/08/21 08:35:27;;;;;;;5.60;2.33;;;;;;;36.33;30.77;102473.78;5086231;28;20031;-68
2023/08/21 08:37:52;;;;;;;3.53;0.88;;;;;;;36.21;31.72;102474.91;5068987;28;20021;-68
2023/08/21 08:40:18;;;;;;;9.82;1.52;;;;;;;38.09;29.93;102466.50;5067482;28;20055;-68
2023/08/21 08:42:43;;;;;;;6.50;1.20;;;;;;;37.48;29.73;102462.69;5068563;28;20388;-68
2023/08/21 08:45:12;;;;;;;7.70;1.98;;;;;;;37.97;30.14;102463.16;5085919;28;20027;-68
2023/08/21 08:47:40;;;;;;;6.13;1.42;;;;;;;37.91;29.78;102455.63;5086834;28;20028;-68
2023/08/21 08:50:07;;;;;;;5.85;1.60;;;;;;;38.82;28.90;102472.63;5088360;28;20028;-68
2023/08/21 08:52:38;;;;;;;6.28;1.55;;;;;;;39.16;28.89;102458.13;5085825;28;20028;-69
2023/08/21 08:55:06;;;;;;;5.85;1.50;;;;;;;37.60;29.30;102466.88;5074432;28;20567;-68
2023/08/21 08:57:32;;;;;;;4.63;1.35;;;;;;;38.66;28.89;102479.72;5067012;28;20029;-67
2023/08/21 08:59:58;;;;;;;3.55;1.20;;;;;;;40.81;25.94;102463.56;5034061;28;20094;-68
2023/08/21 09:02:26;;;;;;;4.05;1.08;;;;;;;39.99;26.34;102465.38;5073764;28;20454;-68
2023/08/21 09:04:51;;;;;;;7.28;1.42;;;;;;;38.73;27.72;102468.16;5056248;28;20384;-68
2023/08/21 09:07:19;;;;;;;3.38;1.10;;;;;;;37.60;28.88;102466.88;5020798;28;20029;-68
2023/08/21 09:09:46;;;;;;;2.67;1.20;;;;;;;40.51;26.83;102469.63;5043320;28;20063;-68
2023/08/21 09:12:13;;;;;;;1.38;0.60;;;;;;;39.77;26.43;102460.63;5065156;28;20029;-68
2023/08/21 09:14:40;;;;;;;2.63;0.70;;;;;;;40.41;26.68;102462.63;5042554;28;20016;-68
2023/08/21 09:17:06;;;;;;;2.97;2.28;;;;;;;37.96;28.29;102466.94;5041813;28;20484;-68
2023/08/21 09:19:31;;;;;;;1.88;0.90;;;;;;;38.74;26.78;102469.88;5072462;28;20035;-68
2023/08/21 09:21:57;;;;;;;3.13;0.80;;;;;;;39.44;26.48;102452.34;5039016;28;20032;-68
2023/08/21 09:24:23;;;;;;;1.15;0.60;;;;;;;39.33;26.60;102465.31;5061520;28;20063;-67
2023/08/21 09:26:49;;;;;;;5.43;0.80;;;;;;;40.69;24.98;102463.91;5041732;28;20037;-68
2023/08/21 09:29:14;;;;;;;3.30;1.00;;;;;;;42.36;23.36;102469.00;5033841;28;20060;-66
2023/08/21 09:31:40;;;;;;;2.83;0.68;;;;;;;40.48;24.75;102458.16;5052184;28;20057;-66
2023/08/21 09:34:05;;;;;;;2.90;0.75;;;;;;;39.34;27.43;102453.34;5033836;28;20401;-64
2023/08/21 09:36:32;;;;;;;3.40;0.90;;;;;;;38.38;27.81;102465.38;5039827;28;20442;-65
2023/08/21 09:38:57;;;;;;;2.28;0.80;;;;;;;37.90;28.79;102456.63;5046330;28;20036;-65
2023/08/21 09:41:25;;;;;;;1.13;0.43;;;;;;;38.07;27.67;102454.03;5072075;28;20063;-65
2023/08/21 09:43:51;;;;;;;2.30;0.60;;;;;;;37.31;29.03;102454.31;5069357;28;20032;-65
2023/08/21 09:46:17;;;;;;;2.38;0.70;;;;;;;36.00;30.18;102454.16;5072680;28;20020;-65
2023/08/21 09:48:47;;;;;;;2.58;0.90;;;;;;;35.60;30.93;102449.72;5048291;28;20115;-65
2023/08/21 09:51:13;;;;;;;5.32;0.80;;;;;;;36.00;29.81;102448.72;5052129;28;20032;-65
2023/08/21 09:53:40;;;;;;;3.75;0.60;;;;;;;36.01;30.98;102446.84;5048635;28;20399;-65
2023/08/21 09:56:06;;;;;;;3.05;0.85;;;;;;;36.20;29.36;102443.25;5053006;28;20555;-65
2023/08/21 09:58:31;;;;;;;2.60;0.75;;;;;;;35.00;31.09;102447.84;5068135;28;20131;-65
2023/08/21 10:00:58;;;;;;;2.22;1.00;;;;;;;35.80;30.40;102449.72;5077116;28;20087;-66
2023/08/21 10:03:25;;;;;;;6.00;1.25;;;;;;;32.90;34.14;102446.50;5088139;28;20028;-65
2023/08/21 10:05:52;;;;;;;2.85;0.98;;;;;;;33.52;33.90;102446.09;5079999;28;20453;-65
2023/08/21 10:08:23;;;;;;;3.45;0.90;;;;;;;33.09;34.56;102447.75;5084251;28;20096;-65
2023/08/21 10:10:49;;;;;;;8.35;1.58;;;;;;;33.81;32.99;102449.09;5088257;28;20073;-66
2023/08/21 10:13:15;;;;;;;2.45;0.50;;;;;;;32.69;34.24;102451.78;5090103;28;20028;-65
2023/08/21 10:15:42;;;;;;;2.03;0.60;;;;;;;33.51;31.88;102442.53;5087337;28;20656;-66
2023/08/21 10:18:32;;;;;;;5.55;0.82;;;;;;;34.18;32.05;102451.38;5081837;28;20057;-65
2023/08/21 10:21:10;;;;;;;0.40;0.40;;;;;;;34.16;31.33;102453.34;5075080;28;20024;-66
2023/08/21 10:23:37;;;;;;;0.75;0.40;;;;;;;32.83;31.95;102450.72;5083192;28;20032;-66
2023/08/21 10:26:07;;;;;;;3.42;0.80;;;;;;;34.15;31.65;102448.91;5080588;28;20030;-67
2023/08/21 10:28:59;;;;;;;2.80;0.73;;;;;;;33.54;32.70;102449.50;5074079;28;20033;-66
2023/08/21 10:31:39;;;;;;;0.52;0.52;;;;;;;32.97;32.35;102461.31;5072008;28;20023;-65
2023/08/21 10:34:14;;;;;;;2.67;0.77;;;;;;;33.48;31.68;102442.75;5081421;28;20411;-67
2023/08/21 10:36:43;;;;;;;2.92;0.38;;;;;;;34.21;30.87;102434.84;5074889;28;20038;-65
2023/08/21 10:39:17;;;;;;;5.00;0.98;;;;;;;34.45;30.64;102437.28;5086722;28;20028;-66
2023/08/21 10:41:56;;;;;;;1.75;0.55;;;;;;;32.93;31.01;102438.16;5086954;28;20030;-66
2023/08/21 10:44:58;;;;;;;1.83;0.52;;;;;;;33.79;30.13;102442.94;5087855;28;20031;-66
2023/08/21 10:47:27;;;;;;;2.40;0.77;;;;;;;33.75;30.70;102441.44;5085876;28;20035;-66
2023/08/21 10:50:01;;;;;;;2.22;0.63;;;;;;;33.90;30.05;102437.47;5083769;28;20698;-68
2023/08/21 10:52:41;;;;;;;1.00;0.52;;;;;;;33.49;31.36;102436.34;5080257;28;20043;-66
2023/08/21 10:55:09;;;;;;;4.20;0.55;;;;;;;33.85;31.37;102439.69;5074848;28;20024;-66
2023/08/21 10:57:36;;;;;;;2.83;1.00;;;;;;;33.73;30.95;102440.69;5070517;28;20025;-66
2023/08/21 11:00:04;;;;;;;2.53;0.65;;;;;;;33.36;30.60;102427.53;5068838;28;20385;-66
2023/08/21 11:02:31;;;;;;;1.27;0.40;;;;;;;33.83;30.97;102430.84;5071669;28;20036;-66
2023/08/21 11:04:58;;;;;;;1.63;0.85;;;;;;;32.79;30.89;102433.00;5085835;28;20031;-66
2023/08/21 11:07:24;;;;;;;3.33;0.60;;;;;;;33.48;31.55;102421.97;5089436;28;20031;-66
2023/08/21 11:09:50;;;;;;;1.52;0.50;;;;;;;33.88;29.37;102423.19;5085438;28;20099;-66
2023/08/21 11:12:18;;;;;;;1.52;0.30;;;;;;;33.26;29.56;102432.84;5079080;28;20115;-66
2023/08/21 11:14:44;;;;;;;2.05;0.60;;;;;;;33.44;29.69;102430.44;5085540;28;20448;-66
2023/08/21 11:17:10;;;;;;;0.65;0.50;;;;;;;33.37;29.26;102429.25;5078270;28;20071;-67
2023/08/21 11:19:37;;;;;;;0.45;0.40;;;;;;;34.14;28.30;102439.06;5082368;28;20051;-66
2023/08/21 11:22:06;;;;;;;0.88;0.60;;;;;;;33.74;30.06;102448.69;5078224;28;20036;-66